createdAt,value
2023-02-19T00:01:54.840Z,109254.63
2023-02-19T00:04:23.902Z,109513.28
2023-02-19T00:06:52.379Z,110030.59
2023-02-19T00:09:21.747Z,110289.28
2023-02-19T00:11:51.801Z,110548.00
2023-02-19T00:14:22.172Z,110806.75
2023-02-19T00:16:51.093Z,110806.75
2023-02-19T00:19:21.311Z,111065.50
2023-02-19T00:21:54.605Z,111065.50
2023-02-19T00:24:23.526Z,111065.50
2023-02-19T00:26:53.267Z,110806.75
2023-02-19T00:29:23.028Z,110806.75
2023-02-19T00:31:52.126Z,110806.75
2023-02-19T00:34:20.577Z,110806.75
2023-02-19T00:36:48.963Z,110548.00
2023-02-19T00:39:21.531Z,110289.28
2023-02-19T00:41:49.955Z,110030.59
2023-02-19T00:44:19.807Z,110030.59
2023-02-19T00:46:50.174Z,109771.94
2023-02-19T00:49:20.531Z,109254.63
2023-02-19T00:51:50.075Z,108996.00
2023-02-19T00:54:18.688Z,108996.00
2023-02-19T00:56:47.685Z,108996.00
2023-02-19T00:59:16.576Z,108996.00
2023-02-19T01:01:47.130Z,108996.00
2023-02-19T01:04:16.518Z,108737.41
2023-02-19T01:06:45.178Z,108737.41
2023-02-19T01:09:13.807Z,108478.84
2023-02-19T01:11:42.957Z,108220.28
2023-02-19T01:14:11.588Z,107961.72
2023-02-19T01:16:40.057Z,107703.22
2023-02-19T01:19:09.835Z,107703.22
2023-02-19T01:21:38.257Z,107444.69
2023-02-19T01:24:07.037Z,106927.75
2023-02-19T01:26:35.480Z,106410.88
2023-02-19T01:29:05.237Z,106152.47
2023-02-19T01:31:33.604Z,105894.09
2023-02-19T01:34:05.115Z,105119.03
2023-02-19T01:36:37.289Z,104344.16
2023-02-19T01:39:07.629Z,103827.66
2023-02-19T01:41:39.603Z,103569.44
2023-02-19T01:44:30.406Z,102278.66
2023-02-19T01:46:58.977Z,100988.31
2023-02-19T01:49:30.140Z,100730.31
2023-02-19T01:52:03.219Z,99956.41
2023-02-19T01:54:36.812Z,98409.13
2023-02-19T01:57:09.328Z,98924.81
2023-02-19T01:59:38.450Z,98151.31
2023-02-19T02:02:07.162Z,98151.31
2023-02-19T02:04:36.350Z,98151.31
2023-02-19T02:07:28.410Z,98666.94
2023-02-19T02:10:15.376Z,98151.31
2023-02-19T02:12:43.723Z,98409.13
2023-02-19T02:15:12.965Z,98666.94
2023-02-19T02:17:52.865Z,99182.69
2023-02-19T02:20:51.216Z,98924.81
2023-02-19T02:23:33.327Z,97635.72
2023-02-19T02:26:12.661Z,97893.50
2023-02-19T02:29:14.016Z,98151.31
2023-02-19T02:31:46.510Z,98409.13
2023-02-19T02:34:20.305Z,98151.31
2023-02-19T02:36:52.810Z,96862.50
2023-02-19T02:39:24.297Z,95574.19
2023-02-19T02:42:11.382Z,95316.59
2023-02-19T02:44:42.135Z,95574.19
2023-02-19T02:47:32.802Z,95574.19
2023-02-19T02:50:07.944Z,93771.38
2023-02-19T02:52:56.349Z,93256.44
2023-02-19T02:55:26.059Z,92484.19
2023-02-19T02:57:54.813Z,91197.50
2023-02-19T03:00:25.021Z,90425.72
2023-02-19T03:02:57.110Z,90168.50
2023-02-19T03:05:45.756Z,89654.13
2023-02-19T03:08:17.622Z,88368.50
2023-02-19T03:10:51.222Z,86055.56
2023-02-19T03:13:42.945Z,86569.41
2023-02-19T03:16:36.644Z,86312.47
2023-02-19T03:19:21.107Z,84000.91
2023-02-19T03:21:56.134Z,83744.16
2023-02-19T03:24:54.455Z,84257.66
2023-02-19T03:27:25.992Z,81947.50
2023-02-19T03:30:00.697Z,81947.50
2023-02-19T03:32:33.866Z,78613.28
2023-02-19T03:35:08.591Z,77844.31
2023-02-19T03:37:42.925Z,77331.78
2023-02-19T03:40:11.895Z,76819.28
2023-02-19T03:42:47.903Z,77331.78
2023-02-19T03:45:33.947Z,76819.28
2023-02-19T03:48:19.750Z,77844.31
2023-02-19T03:51:01.181Z,78613.28
2023-02-19T03:53:35.900Z,78613.28
2023-02-19T03:56:11.057Z,78356.94
2023-02-19T03:58:52.122Z,77844.31
2023-02-19T04:01:27.497Z,77588.03
2023-02-19T04:04:01.058Z,78613.28
2023-02-19T04:06:34.515Z,78100.63
2023-02-19T04:09:06.574Z,78100.63
2023-02-19T04:11:35.253Z,76050.72
2023-02-19T04:14:10.590Z,76563.09
2023-02-19T04:16:42.762Z,75794.56
2023-02-19T04:19:17.718Z,74770.16
2023-02-19T04:21:48.430Z,75538.44
2023-02-19T04:24:23.416Z,77075.53
2023-02-19T04:26:52.248Z,76819.28
2023-02-19T04:29:20.557Z,77331.78
2023-02-19T04:31:51.430Z,78100.63
2023-02-19T04:34:19.848Z,78613.28
2023-02-19T04:36:49.671Z,80151.75
2023-02-19T04:39:18.097Z,80151.75
2023-02-19T04:41:46.615Z,79895.28
2023-02-19T04:44:14.924Z,80921.25
2023-02-19T04:46:43.348Z,80921.25
2023-02-19T04:49:11.761Z,80921.25
2023-02-19T04:51:40.934Z,81177.78
2023-02-19T04:54:10.870Z,82204.09
2023-02-19T04:56:39.208Z,82460.72
2023-02-19T04:59:07.506Z,82974.03
2023-02-19T05:01:35.959Z,83230.72
2023-02-19T05:04:06.995Z,84000.91
2023-02-19T05:06:35.373Z,84257.66
2023-02-19T05:09:04.353Z,84257.66
2023-02-19T05:11:34.226Z,84000.91
2023-02-19T05:14:02.778Z,83744.16
2023-02-19T05:16:31.284Z,84000.91
2023-02-19T05:18:59.632Z,83744.16
2023-02-19T05:21:28.260Z,83230.72
2023-02-19T05:23:56.607Z,82974.03
2023-02-19T05:26:25.397Z,82974.03
2023-02-19T05:28:55.325Z,83230.72
2023-02-19T05:31:24.025Z,83487.44
2023-02-19T05:33:53.029Z,83744.16
2023-02-19T05:36:23.046Z,84257.66
2023-02-19T05:38:54.405Z,84514.44
2023-02-19T05:41:24.681Z,84257.66
2023-02-19T05:43:53.413Z,84771.25
2023-02-19T05:46:26.387Z,84257.66
2023-02-19T05:48:55.717Z,84000.91
2023-02-19T05:51:26.061Z,83487.44
2023-02-19T05:53:57.736Z,83487.44
2023-02-19T05:56:32.242Z,82204.09
2023-02-19T05:59:03.928Z,82974.03
2023-02-19T06:01:33.738Z,81690.91
2023-02-19T06:04:02.301Z,80151.75
2023-02-19T06:06:33.053Z,80408.22
2023-02-19T06:09:01.475Z,80408.22
2023-02-19T06:11:30.712Z,81434.31
2023-02-19T06:13:59.018Z,80408.22
2023-02-19T06:16:27.860Z,79638.84
2023-02-19T06:18:57.746Z,80408.22
2023-02-19T06:21:26.098Z,79895.28
2023-02-19T06:23:55.555Z,80151.75
2023-02-19T06:26:26.168Z,80408.22
2023-02-19T06:28:54.826Z,80151.75
2023-02-19T06:31:23.732Z,80664.72
2023-02-19T06:33:52.156Z,79895.28
2023-02-19T06:36:22.434Z,80408.22
2023-02-19T06:38:51.055Z,79895.28
2023-02-19T06:41:19.469Z,80408.22
2023-02-19T06:43:47.948Z,80408.22
2023-02-19T06:46:16.725Z,79638.84
2023-02-19T06:48:46.328Z,80151.75
2023-02-19T06:51:18.701Z,78356.94
2023-02-19T06:53:48.423Z,78869.66
2023-02-19T06:56:25.722Z,78100.63
2023-02-19T06:58:55.053Z,78613.28
2023-02-19T07:01:24.404Z,78613.28
2023-02-19T07:03:53.650Z,79895.28
2023-02-19T07:06:27.037Z,81690.91
2023-02-19T07:08:58.600Z,82717.38
2023-02-19T07:11:27.933Z,84000.91
2023-02-19T07:13:57.045Z,85541.78
2023-02-19T07:16:26.339Z,86569.41
2023-02-19T07:18:57.126Z,87083.34
2023-02-19T07:21:25.917Z,87597.34
2023-02-19T07:23:54.698Z,87854.38
2023-02-19T07:26:25.343Z,88111.41
2023-02-19T07:28:54.098Z,88368.50
2023-02-19T07:31:25.148Z,88111.41
2023-02-19T07:33:53.737Z,88625.56
2023-02-19T07:36:23.844Z,88111.41
2023-02-19T07:38:56.172Z,87854.38
2023-02-19T07:41:26.729Z,87083.34
2023-02-19T07:43:58.368Z,86312.47
2023-02-19T07:46:26.990Z,86569.41
2023-02-19T07:48:55.376Z,85028.06
2023-02-19T07:51:23.955Z,85541.78
2023-02-19T07:53:52.695Z,85284.91
2023-02-19T07:56:22.063Z,82974.03
2023-02-19T07:58:54.529Z,82717.38
2023-02-19T08:01:45.332Z,82460.72
2023-02-19T08:04:14.302Z,82460.72
2023-02-19T08:06:43.588Z,82460.72
2023-02-19T08:09:12.249Z,81434.31
2023-02-19T08:11:58.526Z,80151.75
2023-02-19T08:14:29.048Z,75282.31
2023-02-19T08:16:58.237Z,75026.22
2023-02-19T08:19:26.717Z,76563.09
2023-02-19T08:21:55.051Z,77588.03
2023-02-19T08:24:23.488Z,77844.31
2023-02-19T08:26:51.847Z,77588.03
2023-02-19T08:29:20.251Z,77844.31
2023-02-19T08:31:50.136Z,79382.44
2023-02-19T08:34:18.583Z,79895.28
2023-02-19T08:36:47.053Z,80921.25
2023-02-19T08:39:15.510Z,79895.28
2023-02-19T08:41:43.967Z,78356.94
2023-02-19T08:44:12.393Z,79895.28
2023-02-19T08:46:40.868Z,83230.72
2023-02-19T08:49:10.602Z,81947.50
2023-02-19T08:51:38.977Z,81690.91
2023-02-19T08:54:07.556Z,84771.25
2023-02-19T08:56:35.935Z,85541.78
2023-02-19T08:59:04.358Z,87854.38
2023-02-19T09:01:35.041Z,90940.22
2023-02-19T09:04:03.702Z,93513.91
2023-02-19T09:06:33.556Z,95316.59
2023-02-19T09:09:02.026Z,96089.47
2023-02-19T09:11:33.378Z,97377.97
2023-02-19T09:14:02.224Z,98151.31
2023-02-19T09:16:30.501Z,99182.69
2023-02-19T09:18:58.960Z,100730.31
2023-02-19T09:21:27.584Z,100472.31
2023-02-19T09:23:57.588Z,99956.41
2023-02-19T09:26:26.195Z,97635.72
2023-02-19T09:28:54.756Z,97120.22
2023-02-19T09:31:23.187Z,97893.50
2023-02-19T09:33:51.828Z,94801.44
2023-02-19T09:36:21.236Z,95059.00
2023-02-19T09:38:49.606Z,92999.00
2023-02-19T09:41:27.569Z,91454.81
2023-02-19T09:43:56.700Z,88111.41
2023-02-19T09:46:32.108Z,88111.41
2023-02-19T09:49:06.669Z,89911.31
2023-02-19T09:51:38.016Z,90168.50
2023-02-19T09:54:09.036Z,87854.38
2023-02-19T09:56:39.203Z,89654.13
2023-02-19T09:59:11.964Z,89654.13
2023-02-19T10:01:42.145Z,90940.22
2023-02-19T10:04:11.906Z,91969.47
2023-02-19T10:06:41.822Z,92741.59
2023-02-19T10:09:22.273Z,87597.34
2023-02-19T10:11:55.063Z,83230.72
2023-02-19T10:14:29.390Z,81690.91
2023-02-19T10:17:01.351Z,82204.09
2023-02-19T10:19:29.840Z,80151.75
2023-02-19T10:21:58.646Z,80151.75
2023-02-19T10:24:29.793Z,80408.22
2023-02-19T10:26:59.756Z,76819.28
2023-02-19T10:29:28.258Z,76306.91
2023-02-19T10:32:17.384Z,78869.66
2023-02-19T10:34:45.991Z,80408.22
2023-02-19T10:37:17.313Z,82204.09
2023-02-19T10:39:48.018Z,84000.91
2023-02-19T10:42:20.564Z,80921.25
2023-02-19T10:44:54.796Z,85284.91
2023-02-19T10:47:25.204Z,82717.38
2023-02-19T10:49:56.844Z,80408.22
2023-02-19T10:52:29.394Z,79382.44
2023-02-19T10:54:59.814Z,76306.91
2023-02-19T10:57:34.828Z,75794.56
2023-02-19T11:00:20.169Z,75538.44
2023-02-19T11:02:48.549Z,78100.63
2023-02-19T11:05:21.134Z,78613.28
2023-02-19T11:07:53.667Z,77844.31
2023-02-19T11:10:27.822Z,79126.03
2023-02-19T11:13:00.938Z,81177.78
2023-02-19T11:15:32.416Z,82460.72
2023-02-19T11:18:19.640Z,85028.06
2023-02-19T11:20:54.509Z,86569.41
2023-02-19T11:23:28.066Z,86826.34
2023-02-19T11:25:59.211Z,87854.38
2023-02-19T11:28:35.239Z,87083.34
2023-02-19T11:31:25.505Z,86826.34
2023-02-19T11:33:59.530Z,86569.41
2023-02-19T11:36:34.352Z,82460.72
2023-02-19T11:39:20.861Z,81947.50
2023-02-19T11:42:14.085Z,82460.72
2023-02-19T11:44:59.308Z,80151.75
2023-02-19T11:47:47.249Z,74770.16
2023-02-19T11:50:26.146Z,76050.72
2023-02-19T11:53:11.222Z,72978.16
2023-02-19T11:55:53.805Z,70667.56
2023-02-19T11:58:45.402Z,68466.34
2023-02-19T12:01:25.211Z,68682.00
2023-02-19T12:04:32.893Z,66266.56
2023-02-19T12:07:12.457Z,62941.59
2023-02-19T12:10:00.049Z,60691.56
2023-02-19T12:12:40.186Z,59137.97
2023-02-19T12:15:26.164Z,58265.84
2023-02-19T12:18:21.144Z,56944.19
2023-02-19T12:21:00.461Z,57254.63
2023-02-19T12:23:52.920Z,56942.19
2023-02-19T12:26:26.945Z,56478.53
2023-02-19T12:29:22.665Z,56617.81
2023-02-19T12:32:17.835Z,56207.94
2023-02-19T12:35:04.428Z,56355.16
2023-02-19T12:37:45.304Z,56512.34
2023-02-19T12:40:28.183Z,56757.13
2023-02-19T12:43:09.254Z,56695.41
2023-02-19T12:45:44.026Z,57216.81
2023-02-19T12:48:21.767Z,57175.03
2023-02-19T12:50:58.249Z,56936.22
2023-02-19T12:53:37.497Z,56603.88
2023-02-19T12:56:11.893Z,56389.00
2023-02-19T12:58:45.530Z,56739.19
2023-02-19T13:01:21.037Z,56152.22
2023-02-19T13:03:55.054Z,55650.88
2023-02-19T13:06:36.153Z,55722.47
2023-02-19T13:09:13.063Z,55455.91
2023-02-19T13:11:45.722Z,55332.59
2023-02-19T13:14:22.548Z,55209.25
2023-02-19T13:16:57.218Z,55187.38
2023-02-19T13:19:25.744Z,54958.66
2023-02-19T13:22:19.689Z,55004.41
2023-02-19T13:24:48.259Z,54986.50
2023-02-19T13:27:42.076Z,54853.25
2023-02-19T13:30:26.228Z,54747.84
2023-02-19T13:33:06.423Z,54727.94
2023-02-19T13:36:06.230Z,54676.25
2023-02-19T13:38:39.447Z,54737.88
2023-02-19T13:41:18.225Z,54700.09
2023-02-19T13:43:47.738Z,54670.28
2023-02-19T13:46:18.696Z,54584.75
2023-02-19T13:48:47.123Z,54598.69
2023-02-19T13:51:55.068Z,54568.84
2023-02-19T13:54:28.613Z,54489.31
2023-02-19T13:57:28.702Z,54461.47
2023-02-19T13:59:58.758Z,54431.63
2023-02-19T14:02:34.225Z,54391.84
2023-02-19T14:05:07.302Z,54332.19
2023-02-19T14:07:56.372Z,54362.03
2023-02-19T14:11:02.787Z,54385.91
2023-02-19T14:14:11.722Z,54375.94
2023-02-19T14:17:04.732Z,54362.03
2023-02-19T14:19:57.366Z,54405.78
2023-02-19T14:23:01.438Z,54350.09
2023-02-19T14:25:38.257Z,54342.16
2023-02-19T14:28:36.315Z,54368.00
2023-02-19T14:31:17.551Z,54346.13
2023-02-19T14:33:50.221Z,54387.88
2023-02-19T14:36:44.283Z,54366.00
2023-02-19T14:39:17.607Z,54385.91
2023-02-19T14:41:49.940Z,54369.97
2023-02-19T14:44:23.500Z,54381.91
2023-02-19T14:46:57.879Z,54362.03
2023-02-19T14:49:33.897Z,54326.25
2023-02-19T14:52:07.029Z,54322.25
2023-02-19T14:54:42.596Z,54308.34
2023-02-19T14:57:18.608Z,54379.94
2023-02-19T14:59:59.016Z,54375.94
2023-02-19T15:02:28.592Z,54417.72
2023-02-19T15:04:59.118Z,54389.88
2023-02-19T15:07:30.977Z,54405.78
2023-02-19T15:10:05.049Z,54425.66
2023-02-19T15:12:37.098Z,54387.88
2023-02-19T15:15:07.330Z,54389.88
2023-02-19T15:17:38.535Z,54457.47
2023-02-19T15:20:12.866Z,54479.34
2023-02-19T15:22:42.770Z,54505.22
2023-02-19T15:25:18.266Z,54423.69
2023-02-19T15:27:46.722Z,54417.72
2023-02-19T15:30:24.028Z,54425.66
2023-02-19T15:32:58.253Z,54413.72
2023-02-19T15:35:29.975Z,54425.66
2023-02-19T15:37:58.687Z,54415.72
2023-02-19T15:40:31.625Z,54391.84
2023-02-19T15:43:01.205Z,54393.84
2023-02-19T15:45:32.694Z,54415.72
2023-02-19T15:48:07.129Z,54449.53
2023-02-19T15:50:41.317Z,54415.72
2023-02-19T15:53:15.372Z,54409.75
2023-02-19T15:55:49.694Z,54457.47
2023-02-19T15:58:22.439Z,54503.22
2023-02-19T16:00:55.096Z,54531.06
2023-02-19T16:03:25.426Z,54574.81
2023-02-19T16:06:03.780Z,54644.41
2023-02-19T16:08:33.232Z,54692.16
2023-02-19T16:11:03.753Z,54674.25
2023-02-19T16:13:34.239Z,54676.25
2023-02-19T16:16:16.178Z,54672.25
2023-02-19T16:18:47.623Z,54759.78
2023-02-19T16:21:23.894Z,54745.84
2023-02-19T16:24:04.976Z,54861.19
2023-02-19T16:26:41.133Z,54853.25
2023-02-19T16:29:20.498Z,54980.53
2023-02-19T16:31:51.211Z,55066.06
2023-02-19T16:34:31.459Z,55193.34
2023-02-19T16:37:02.021Z,55276.91
2023-02-19T16:39:31.344Z,55312.69
2023-02-19T16:42:18.446Z,55348.50
2023-02-19T16:44:48.399Z,55436.03
2023-02-19T16:47:32.599Z,55447.97
2023-02-19T16:50:04.941Z,55414.16
2023-02-19T16:52:39.271Z,55410.16
2023-02-19T16:55:14.327Z,55410.16
2023-02-19T16:57:42.843Z,55362.44
2023-02-19T17:00:17.945Z,55290.81
2023-02-19T17:02:48.436Z,55338.56
2023-02-19T17:05:17.639Z,55294.78
2023-02-19T17:07:47.873Z,55314.69
2023-02-19T17:10:20.092Z,55296.78
2023-02-19T17:12:48.542Z,55288.84
2023-02-19T17:15:17.084Z,55338.56
2023-02-19T17:17:45.617Z,55443.97
2023-02-19T17:20:25.416Z,55527.53
2023-02-19T17:22:55.304Z,55457.91
2023-02-19T17:25:24.539Z,55533.50
2023-02-19T17:27:52.986Z,55513.59
2023-02-19T17:30:27.442Z,55475.81
2023-02-19T17:32:56.002Z,55493.72
2023-02-19T17:35:24.741Z,55404.19
2023-02-19T17:37:54.595Z,55459.91
2023-02-19T17:40:32.593Z,55712.53
2023-02-19T17:43:01.664Z,55863.72
2023-02-19T17:45:30.532Z,56078.59
2023-02-19T17:47:59.102Z,56383.03
2023-02-19T17:50:29.975Z,56788.94
2023-02-19T17:53:00.132Z,57378.03
2023-02-19T17:55:28.827Z,57831.88
2023-02-19T17:57:57.327Z,58644.13
2023-02-19T18:00:28.262Z,59201.69
2023-02-19T18:02:57.461Z,60213.47
2023-02-19T18:05:26.317Z,61086.06
2023-02-19T18:07:55.002Z,62036.63
2023-02-19T18:10:25.506Z,62911.69
2023-02-19T18:12:54.139Z,62887.78
2023-02-19T18:15:26.354Z,62261.84
2023-02-19T18:17:55.875Z,62389.44
2023-02-19T18:20:28.957Z,62020.69
2023-02-19T18:22:57.840Z,61707.78
2023-02-19T18:25:27.915Z,61402.91
2023-02-19T18:27:56.395Z,61181.72
2023-02-19T18:30:25.323Z,60880.84
2023-02-19T18:32:53.891Z,60635.78
2023-02-19T18:35:22.812Z,60293.16
2023-02-19T18:37:53.024Z,59964.47
2023-02-19T18:40:22.226Z,59500.41
2023-02-19T18:42:52.110Z,59092.16
2023-02-19T18:45:20.798Z,58646.13
2023-02-19T18:47:49.660Z,58140.44
2023-02-19T18:50:19.353Z,58142.41
2023-02-19T18:52:47.943Z,58042.88
2023-02-19T18:55:16.606Z,57979.19
2023-02-19T18:57:45.405Z,57867.69
2023-02-19T19:00:19.376Z,57931.41
2023-02-19T19:02:51.343Z,57804.00
2023-02-19T19:05:23.297Z,57654.72
2023-02-19T19:07:52.604Z,57662.66
2023-02-19T19:10:24.174Z,57664.66
2023-02-19T19:12:54.237Z,57541.25
2023-02-19T19:15:24.300Z,57461.63
2023-02-19T19:17:55.735Z,57129.25
2023-02-19T19:20:25.116Z,56928.25
2023-02-19T19:22:54.391Z,56695.41
2023-02-19T19:25:24.008Z,56703.38
2023-02-19T19:27:55.875Z,56440.72
2023-02-19T19:30:25.952Z,56207.94
2023-02-19T19:32:54.523Z,56108.44
2023-02-19T19:35:23.987Z,56036.81
2023-02-19T19:37:52.564Z,56038.81
2023-02-19T19:40:21.423Z,55712.53
2023-02-19T19:42:52.360Z,55698.63
2023-02-19T19:45:21.519Z,55696.63
2023-02-19T19:47:53.131Z,55706.56
2023-02-19T19:50:21.905Z,55545.44
2023-02-19T19:52:50.344Z,55571.28
2023-02-19T19:55:21.234Z,55517.59
2023-02-19T19:57:49.919Z,55531.50
2023-02-19T20:00:19.791Z,55527.53
2023-02-19T20:02:48.402Z,55535.50
2023-02-19T20:05:18.673Z,55581.25
2023-02-19T20:07:47.875Z,55459.91
2023-02-19T20:10:20.132Z,55527.53
2023-02-19T20:12:48.723Z,55475.81
2023-02-19T20:15:21.881Z,55521.56
2023-02-19T20:17:50.658Z,55587.22
2023-02-19T20:20:22.768Z,55597.16
2023-02-19T20:22:51.923Z,55638.94
2023-02-19T20:25:21.486Z,55688.66
2023-02-19T20:27:50.660Z,55650.88
2023-02-19T20:30:20.248Z,55712.53
2023-02-19T20:32:48.805Z,55690.66
2023-02-19T20:35:18.839Z,55722.47
2023-02-19T20:37:49.570Z,55768.25
2023-02-19T20:40:19.475Z,55835.88
2023-02-19T20:42:48.140Z,55863.72
2023-02-19T20:45:17.974Z,55837.88
2023-02-19T20:47:46.510Z,56040.78
2023-02-19T20:50:18.679Z,56036.81
2023-02-19T20:52:49.290Z,56050.75
2023-02-19T20:55:18.111Z,56227.81
2023-02-19T20:57:46.845Z,56313.38
2023-02-19T21:00:17.093Z,56337.25
2023-02-19T21:02:45.497Z,56317.34
2023-02-19T21:05:14.647Z,56474.53
2023-02-19T21:07:43.511Z,56458.63
2023-02-19T21:10:13.760Z,56448.69
2023-02-19T21:12:42.253Z,56611.84
2023-02-19T21:15:11.003Z,56671.53
2023-02-19T21:17:39.307Z,56693.44
2023-02-19T21:20:09.255Z,56729.25
2023-02-19T21:22:37.975Z,56840.69
2023-02-19T21:25:07.080Z,56904.38
2023-02-19T21:27:37.403Z,57181.00
2023-02-19T21:30:09.796Z,57242.69
2023-02-19T21:32:38.509Z,57190.97
2023-02-19T21:35:10.500Z,57306.38
2023-02-19T21:37:43.048Z,57437.75
2023-02-19T21:40:13.531Z,57575.09
2023-02-19T21:42:43.445Z,57509.41
2023-02-19T21:45:11.941Z,57547.22
2023-02-19T21:47:40.611Z,57804.00
2023-02-19T21:50:09.802Z,57935.38
2023-02-19T21:52:38.494Z,58373.34
2023-02-19T21:55:07.841Z,58433.09
2023-02-19T21:57:36.502Z,58616.25
2023-02-19T22:00:08.623Z,58767.59
2023-02-19T22:02:37.283Z,58703.88
2023-02-19T22:05:06.004Z,58699.88
2023-02-19T22:07:34.465Z,59022.47
2023-02-19T22:10:03.000Z,58962.72
2023-02-19T22:12:31.577Z,59321.16
2023-02-19T22:15:00.015Z,59588.03
2023-02-19T22:17:30.095Z,59735.41
2023-02-19T22:20:00.707Z,59635.84
2023-02-19T22:22:29.117Z,59677.66
2023-02-19T22:24:57.532Z,59556.16
2023-02-19T22:27:25.993Z,59870.84
2023-02-19T22:29:54.373Z,60787.22
2023-02-19T22:32:22.831Z,60860.94
2023-02-19T22:34:52.647Z,60749.34
2023-02-19T22:37:21.105Z,61048.22
2023-02-19T22:39:49.663Z,61418.84
2023-02-19T22:42:19.143Z,61795.47
2023-02-19T22:44:47.564Z,62124.31
2023-02-19T22:47:16.102Z,61925.03
2023-02-19T22:49:45.529Z,62253.88
2023-02-19T22:52:15.474Z,62485.09
2023-02-19T22:54:44.099Z,62345.56
2023-02-19T22:57:12.609Z,62692.41
2023-02-19T22:59:40.968Z,62463.19
2023-02-19T23:02:09.611Z,63232.69
2023-02-19T23:04:38.119Z,64076.16
2023-02-19T23:07:07.143Z,64492.97
2023-02-19T23:09:37.335Z,64919.81
2023-02-19T23:12:07.833Z,64871.97
2023-02-19T23:14:36.742Z,65452.47
2023-02-19T23:17:05.395Z,66294.50
2023-02-19T23:19:34.004Z,66779.44
2023-02-19T23:22:03.793Z,66869.25
2023-02-19T23:24:32.747Z,67120.75
2023-02-19T23:27:02.630Z,68797.84
2023-02-19T23:29:31.681Z,68979.56
2023-02-19T23:32:01.017Z,68192.78
2023-02-19T23:34:29.662Z,68855.75
2023-02-19T23:36:59.616Z,69444.94
2023-02-19T23:39:28.001Z,69608.72
2023-02-19T23:41:58.131Z,70675.56
2023-02-19T23:44:28.167Z,70675.56
2023-02-19T23:46:56.736Z,71187.13
2023-02-19T23:49:25.412Z,71954.59
2023-02-19T23:51:53.765Z,73234.09
2023-02-19T23:54:22.656Z,74002.03
2023-02-19T23:56:51.076Z,74258.06
2023-02-19T23:59:19.373Z,75282.31
